createdAt,value
2019-02-21T00:01:15.642Z,15.30
2019-02-21T00:03:41.898Z,15.30
2019-02-21T00:06:08.112Z,15.30
2019-02-21T00:08:34.356Z,15.30
2019-02-21T00:11:00.764Z,15.30
2019-02-21T00:13:27.191Z,15.30
2019-02-21T00:15:53.399Z,15.30
2019-02-21T00:18:19.680Z,15.30
2019-02-21T00:20:46.059Z,15.30
2019-02-21T00:23:12.300Z,15.30
2019-02-21T00:25:38.540Z,15.30
2019-02-21T00:28:05.575Z,15.30
2019-02-21T00:30:35.329Z,15.30
2019-02-21T00:32:58.231Z,15.40
2019-02-21T00:35:26.107Z,15.40
2019-02-21T00:37:53.956Z,15.40
2019-02-21T00:40:20.186Z,15.40
2019-02-21T00:42:46.615Z,15.40
2019-02-21T00:45:12.841Z,15.40
2019-02-21T00:47:39.140Z,15.40
2019-02-21T00:50:05.527Z,15.40
2019-02-21T00:52:31.787Z,15.40
2019-02-21T00:54:58.231Z,15.40
2019-02-21T00:57:24.622Z,15.40
2019-02-21T00:59:51.015Z,15.40
2019-02-21T01:02:17.271Z,15.40
2019-02-21T01:04:43.519Z,15.40
2019-02-21T01:07:10.536Z,15.40
2019-02-21T01:09:36.771Z,15.40
2019-02-21T01:12:03.016Z,15.40
2019-02-21T01:14:29.688Z,15.40
2019-02-21T01:16:56.100Z,15.40
2019-02-21T01:19:22.495Z,15.40
2019-02-21T01:21:48.756Z,15.40
2019-02-21T01:24:15.192Z,15.40
2019-02-21T01:26:41.384Z,15.40
2019-02-21T01:29:07.672Z,15.40
2019-02-21T01:31:34.075Z,15.40
2019-02-21T01:34:00.294Z,15.40
2019-02-21T01:36:28.180Z,15.40
2019-02-21T01:38:54.597Z,15.40
2019-02-21T01:41:20.832Z,15.40
2019-02-21T01:43:47.059Z,15.40
2019-02-21T01:46:13.261Z,15.50
2019-02-21T01:48:39.509Z,15.40
2019-02-21T01:51:06.539Z,15.40
2019-02-21T01:53:32.795Z,15.40
2019-02-21T01:55:59.213Z,15.40
2019-02-21T01:58:25.427Z,15.40
2019-02-21T02:00:51.710Z,15.40
2019-02-21T02:03:18.095Z,15.40
2019-02-21T02:05:44.283Z,15.30
2019-02-21T02:08:10.604Z,15.30
2019-02-21T02:10:37.033Z,15.30
2019-02-21T02:13:03.450Z,15.30
2019-02-21T02:15:29.851Z,15.30
2019-02-21T02:17:56.131Z,15.30
2019-02-21T02:20:22.522Z,15.30
2019-02-21T02:22:50.227Z,15.30
2019-02-21T02:25:16.622Z,15.30
2019-02-21T02:27:42.839Z,15.30
2019-02-21T02:30:09.101Z,15.30
2019-02-21T02:32:35.496Z,15.30
2019-02-21T02:35:01.740Z,15.30
2019-02-21T02:37:28.163Z,15.30
2019-02-21T02:39:54.388Z,15.40
2019-02-21T02:42:20.665Z,15.40
2019-02-21T02:44:47.071Z,15.40
2019-02-21T02:47:13.495Z,15.40
2019-02-21T02:49:39.728Z,15.30
2019-02-21T02:52:06.158Z,15.40
2019-02-21T02:54:32.420Z,15.40
2019-02-21T02:56:58.827Z,15.40
2019-02-21T02:59:25.035Z,15.40
2019-02-21T03:01:52.128Z,15.30
2019-02-21T03:04:18.767Z,15.30
2019-02-21T03:06:45.173Z,15.30
2019-02-21T03:09:11.634Z,15.30
2019-02-21T03:11:38.051Z,15.30
2019-02-21T03:14:04.455Z,15.30
2019-02-21T03:16:30.702Z,15.30
2019-02-21T03:18:56.897Z,15.30
2019-02-21T03:21:23.154Z,15.30
2019-02-21T03:23:50.893Z,15.30
2019-02-21T03:26:17.243Z,15.30
2019-02-21T03:28:43.510Z,15.30
2019-02-21T03:31:10.159Z,15.30
2019-02-21T03:33:36.543Z,15.30
2019-02-21T03:36:02.792Z,15.30
2019-02-21T03:38:29.314Z,15.30
2019-02-21T03:40:55.627Z,15.30
2019-02-21T03:43:21.866Z,15.30
2019-02-21T03:45:48.337Z,15.30
2019-02-21T03:48:14.724Z,15.20
2019-02-21T03:50:40.955Z,15.20
2019-02-21T03:53:07.192Z,15.30
2019-02-21T03:55:33.618Z,15.20
2019-02-21T03:57:59.805Z,15.30
2019-02-21T04:00:26.016Z,15.30
2019-02-21T04:02:52.332Z,15.20
2019-02-21T04:05:18.801Z,15.20
2019-02-21T04:07:45.147Z,15.20
2019-02-21T04:10:11.443Z,15.20
2019-02-21T04:12:37.803Z,15.30
2019-02-21T04:15:04.077Z,15.30
2019-02-21T04:17:30.286Z,15.30
2019-02-21T04:19:56.520Z,15.30
2019-02-21T04:22:22.762Z,15.30
2019-02-21T04:24:49.179Z,15.30
2019-02-21T04:27:15.443Z,15.30
2019-02-21T04:29:41.838Z,15.30
2019-02-21T04:32:16.653Z,15.30
2019-02-21T04:34:34.484Z,15.30
2019-02-21T04:37:00.782Z,15.30
2019-02-21T04:39:27.170Z,15.20
2019-02-21T04:41:55.065Z,15.20
2019-02-21T04:44:21.470Z,15.20
2019-02-21T04:46:47.735Z,15.20
2019-02-21T04:49:14.142Z,15.20
2019-02-21T04:51:40.338Z,15.20
2019-02-21T04:54:06.599Z,15.20
2019-02-21T04:56:33.619Z,15.20
2019-02-21T04:58:59.876Z,15.20
2019-02-21T05:01:26.307Z,15.20
2019-02-21T05:03:52.711Z,15.20
2019-02-21T05:06:19.244Z,15.10
2019-02-21T05:08:45.603Z,15.20
2019-02-21T05:11:11.814Z,15.10
2019-02-21T05:13:38.253Z,15.20
2019-02-21T05:16:06.129Z,15.20
2019-02-21T05:18:32.372Z,15.20
2019-02-21T05:20:58.805Z,15.20
2019-02-21T05:23:25.208Z,15.20
2019-02-21T05:25:51.470Z,15.20
2019-02-21T05:28:17.871Z,15.20
2019-02-21T05:30:44.143Z,15.20
2019-02-21T05:33:10.589Z,15.20
2019-02-21T05:35:38.656Z,15.20
2019-02-21T05:38:07.657Z,15.20
2019-02-21T05:40:31.498Z,15.20
2019-02-21T05:42:57.888Z,15.20
2019-02-21T05:45:24.376Z,15.20
2019-02-21T05:47:50.757Z,15.20
2019-02-21T05:50:16.987Z,15.20
2019-02-21T05:52:43.217Z,15.20
2019-02-21T05:55:09.464Z,15.20
2019-02-21T05:57:35.683Z,15.20
2019-02-21T06:00:03.555Z,15.20
2019-02-21T06:02:29.762Z,15.20
2019-02-21T06:04:56.030Z,15.20
2019-02-21T06:07:22.234Z,15.20
2019-02-21T06:09:48.485Z,15.20
2019-02-21T06:12:14.949Z,15.10
2019-02-21T06:14:41.338Z,15.10
2019-02-21T06:17:07.565Z,15.10
2019-02-21T06:19:34.015Z,15.20
2019-02-21T06:22:10.027Z,15.20
2019-02-21T06:24:27.684Z,15.10
2019-02-21T06:26:55.789Z,15.10
2019-02-21T06:29:22.663Z,15.10
2019-02-21T06:31:48.416Z,15.10
2019-02-21T06:34:14.683Z,15.10
2019-02-21T06:36:40.896Z,15.10
2019-02-21T06:39:07.345Z,15.10
2019-02-21T06:41:33.770Z,15.10
2019-02-21T06:44:00.203Z,15.10
2019-02-21T06:46:26.610Z,15.10
2019-02-21T06:48:52.868Z,15.20
2019-02-21T06:51:19.507Z,15.10
2019-02-21T06:53:46.344Z,15.10
2019-02-21T06:56:12.742Z,15.10
2019-02-21T06:58:39.152Z,15.10
2019-02-21T07:01:05.464Z,15.10
2019-02-21T07:03:31.852Z,15.10
2019-02-21T07:05:58.270Z,15.10
2019-02-21T07:08:25.211Z,15.10
2019-02-21T07:10:50.948Z,15.10
2019-02-21T07:13:26.233Z,15.10
2019-02-21T07:15:43.786Z,15.10
2019-02-21T07:18:11.201Z,15.10
2019-02-21T07:20:36.460Z,15.10
2019-02-21T07:23:02.724Z,15.10
2019-02-21T07:25:29.122Z,15.10
2019-02-21T07:27:58.184Z,15.10
2019-02-21T07:30:23.269Z,15.10
2019-02-21T07:32:49.260Z,15.10
2019-02-21T07:35:15.688Z,15.10
2019-02-21T07:37:42.411Z,15.10
2019-02-21T07:40:08.328Z,15.10
2019-02-21T07:42:34.567Z,15.10
2019-02-21T07:45:00.786Z,15.10
2019-02-21T07:47:27.007Z,15.10
2019-02-21T07:49:53.273Z,15.10
2019-02-21T07:52:19.685Z,15.10
2019-02-21T07:54:45.910Z,15.00
2019-02-21T07:57:12.133Z,15.10
2019-02-21T07:59:38.376Z,15.10
2019-02-21T08:02:05.416Z,15.10
2019-02-21T08:04:31.821Z,15.10
2019-02-21T08:06:58.068Z,15.10
2019-02-21T08:09:24.329Z,15.10
2019-02-21T08:11:50.723Z,15.10
2019-02-21T08:14:16.983Z,15.10
2019-02-21T08:16:43.435Z,15.10
2019-02-21T08:19:09.838Z,15.10
2019-02-21T08:21:36.097Z,15.10
2019-02-21T08:24:02.376Z,15.00
2019-02-21T08:26:28.748Z,15.00
2019-02-21T08:28:55.149Z,15.00
2019-02-21T08:31:21.371Z,15.00
2019-02-21T08:33:57.909Z,15.10
2019-02-21T08:36:14.093Z,15.00
2019-02-21T08:38:40.475Z,15.00
2019-02-21T08:41:06.672Z,15.10
2019-02-21T08:43:33.179Z,15.00
2019-02-21T08:45:59.375Z,15.10
2019-02-21T08:48:25.615Z,15.00
2019-02-21T08:50:52.061Z,15.10
2019-02-21T08:53:18.463Z,15.00
2019-02-21T08:55:44.920Z,15.10
2019-02-21T08:58:11.322Z,15.00
2019-02-21T09:00:37.765Z,15.00
2019-02-21T09:03:03.994Z,15.00
2019-02-21T09:05:30.696Z,15.00
2019-02-21T09:07:57.073Z,15.00
2019-02-21T09:10:23.543Z,15.00
2019-02-21T09:12:49.919Z,15.00
2019-02-21T09:15:17.215Z,15.00
2019-02-21T09:17:43.737Z,15.00
2019-02-21T09:20:10.044Z,15.00
2019-02-21T09:22:37.075Z,15.00
2019-02-21T09:25:03.324Z,15.00
2019-02-21T09:27:30.200Z,15.00
2019-02-21T09:29:56.580Z,15.00
2019-02-21T09:32:22.832Z,15.00
2019-02-21T09:34:50.355Z,15.00
2019-02-21T09:37:15.688Z,15.00
2019-02-21T09:39:41.910Z,15.00
2019-02-21T09:42:09.824Z,15.10
2019-02-21T09:44:36.199Z,15.10
2019-02-21T09:47:02.460Z,15.10
2019-02-21T09:49:28.679Z,15.10
2019-02-21T09:51:54.900Z,15.10
2019-02-21T09:54:21.899Z,15.10
2019-02-21T09:56:52.837Z,15.10
2019-02-21T09:59:14.878Z,15.10
2019-02-21T10:01:41.304Z,15.10
2019-02-21T10:04:07.675Z,15.10
2019-02-21T10:06:33.920Z,15.10
2019-02-21T10:09:00.147Z,15.10
2019-02-21T10:11:26.388Z,15.10
2019-02-21T10:13:52.840Z,15.10
2019-02-21T10:16:19.476Z,15.10
2019-02-21T10:18:45.893Z,15.10
2019-02-21T10:21:12.557Z,15.10
2019-02-21T10:23:38.928Z,15.10
2019-02-21T10:26:05.155Z,15.10
2019-02-21T10:28:32.531Z,15.10
2019-02-21T10:30:57.870Z,15.10
2019-02-21T10:33:25.347Z,15.10
2019-02-21T10:35:50.511Z,15.10
2019-02-21T10:38:16.954Z,15.20
2019-02-21T10:40:43.199Z,15.20
2019-02-21T10:43:09.596Z,15.20
2019-02-21T10:45:47.152Z,15.10
2019-02-21T10:48:03.265Z,15.20
2019-02-21T10:50:29.489Z,15.10
2019-02-21T10:52:55.761Z,15.20
2019-02-21T10:55:22.153Z,15.20
2019-02-21T10:57:48.383Z,15.20
2019-02-21T11:00:14.622Z,15.20
2019-02-21T11:02:40.859Z,15.20
2019-02-21T11:05:07.111Z,15.20
2019-02-21T11:07:33.504Z,15.20
2019-02-21T11:09:59.739Z,15.20
2019-02-21T11:12:25.980Z,15.20
2019-02-21T11:14:52.402Z,15.20
2019-02-21T11:17:18.622Z,15.20
2019-02-21T11:19:44.900Z,15.30
2019-02-21T11:22:11.327Z,15.30
2019-02-21T11:24:37.724Z,15.40
2019-02-21T11:27:03.959Z,15.30
2019-02-21T11:29:30.174Z,15.30
2019-02-21T11:31:56.396Z,15.40
2019-02-21T11:34:22.673Z,15.40
2019-02-21T11:36:49.061Z,15.40
2019-02-21T11:39:15.333Z,15.40
2019-02-21T11:41:41.741Z,15.40
2019-02-21T11:44:08.792Z,15.40
2019-02-21T11:46:35.220Z,15.40
2019-02-21T11:49:01.427Z,15.40
2019-02-21T11:51:27.663Z,15.40
2019-02-21T11:53:53.914Z,15.40
2019-02-21T11:56:20.368Z,15.40
2019-02-21T11:58:46.748Z,15.40
2019-02-21T12:01:13.355Z,15.40
2019-02-21T12:03:39.580Z,15.40
2019-02-21T12:06:05.894Z,15.40
2019-02-21T12:08:32.275Z,15.50
2019-02-21T12:10:58.513Z,15.50
2019-02-21T12:13:24.780Z,15.40
2019-02-21T12:15:51.187Z,15.40
2019-02-21T12:18:17.591Z,15.40
2019-02-21T12:20:43.876Z,15.40
2019-02-21T12:23:10.275Z,15.40
2019-02-21T12:25:36.515Z,15.40
2019-02-21T12:28:02.724Z,15.50
2019-02-21T12:30:29.142Z,15.50
2019-02-21T12:32:55.371Z,15.50
2019-02-21T12:35:29.294Z,15.50
2019-02-21T12:37:48.051Z,15.50
2019-02-21T12:40:15.926Z,15.50
2019-02-21T12:42:42.173Z,15.50
2019-02-21T12:45:08.368Z,15.50
2019-02-21T12:47:34.559Z,15.50
2019-02-21T12:50:00.809Z,15.50
2019-02-21T12:52:27.064Z,15.50
2019-02-21T12:54:53.299Z,15.50
2019-02-21T12:57:19.971Z,15.50
2019-02-21T12:59:46.399Z,15.60
2019-02-21T13:02:12.807Z,15.50
2019-02-21T13:04:39.005Z,15.60
2019-02-21T13:07:05.246Z,15.60
2019-02-21T13:09:31.470Z,15.60
2019-02-21T13:11:58.566Z,15.60
2019-02-21T13:14:24.943Z,15.50
2019-02-21T13:16:51.188Z,15.60
2019-02-21T13:19:17.407Z,15.60
2019-02-21T13:21:43.633Z,15.60
2019-02-21T13:24:09.844Z,15.60
2019-02-21T13:26:36.074Z,15.60
2019-02-21T13:29:02.339Z,15.60
2019-02-21T13:31:30.206Z,15.60
2019-02-21T13:33:56.425Z,15.60
2019-02-21T13:36:22.690Z,15.60
2019-02-21T13:38:49.110Z,15.60
2019-02-21T13:41:15.540Z,15.70
2019-02-21T13:43:41.948Z,15.70
2019-02-21T13:46:08.234Z,15.70
2019-02-21T13:48:34.646Z,15.70
2019-02-21T13:51:01.494Z,15.70
2019-02-21T13:53:27.879Z,15.70
2019-02-21T13:55:54.230Z,15.70
2019-02-21T13:58:20.375Z,15.70
2019-02-21T14:00:47.345Z,15.70
2019-02-21T14:03:13.611Z,15.70
2019-02-21T14:05:39.832Z,15.70
2019-02-21T14:08:06.095Z,15.70
2019-02-21T14:10:32.519Z,15.70
2019-02-21T14:12:58.746Z,15.70
2019-02-21T14:15:26.615Z,15.70
2019-02-21T14:17:53.041Z,15.70
2019-02-21T14:20:19.340Z,15.80
2019-02-21T14:22:45.723Z,15.80
2019-02-21T14:25:11.959Z,15.80
2019-02-21T14:27:38.374Z,15.80
2019-02-21T14:30:05.397Z,15.80
2019-02-21T14:32:31.638Z,15.70
2019-02-21T14:34:57.872Z,15.80
2019-02-21T14:37:24.292Z,15.80
2019-02-21T14:39:50.764Z,15.80
2019-02-21T14:42:17.186Z,15.80
2019-02-21T14:44:43.452Z,15.80
2019-02-21T14:47:09.876Z,15.80
2019-02-21T14:49:36.275Z,15.80
2019-02-21T14:52:02.693Z,15.80
2019-02-21T14:54:28.950Z,15.80
2019-02-21T14:56:55.405Z,15.80
2019-02-21T14:59:21.816Z,15.80
2019-02-21T15:01:48.234Z,15.80
2019-02-21T15:04:14.450Z,15.80
2019-02-21T15:06:40.861Z,15.80
2019-02-21T15:09:07.119Z,15.80
2019-02-21T15:11:33.584Z,15.80
2019-02-21T15:13:59.976Z,15.80
2019-02-21T15:16:26.203Z,15.80
2019-02-21T15:18:55.119Z,15.80
2019-02-21T15:21:18.971Z,15.80
2019-02-21T15:23:45.311Z,15.80
2019-02-21T15:26:11.715Z,15.80
2019-02-21T15:28:37.979Z,15.80
2019-02-21T15:31:04.645Z,15.80
2019-02-21T15:33:31.038Z,15.80
2019-02-21T15:35:57.302Z,15.80
2019-02-21T15:38:23.706Z,15.80
2019-02-21T15:40:49.945Z,15.80
2019-02-21T15:43:16.138Z,15.80
2019-02-21T15:45:42.624Z,15.80
2019-02-21T15:48:09.291Z,15.80
2019-02-21T15:50:35.666Z,15.80
2019-02-21T15:53:01.875Z,15.80
2019-02-21T15:55:32.094Z,15.80
2019-02-21T15:58:04.094Z,15.80
2019-02-21T16:00:22.862Z,15.80
2019-02-21T16:02:49.271Z,15.80
2019-02-21T16:05:15.474Z,15.80
2019-02-21T16:07:41.702Z,15.80
2019-02-21T16:10:08.190Z,15.80
2019-02-21T16:12:34.604Z,15.80
2019-02-21T16:15:01.081Z,15.80
2019-02-21T16:17:27.458Z,15.80
2019-02-21T16:19:54.591Z,15.80
2019-02-21T16:22:20.967Z,15.80
2019-02-21T16:24:48.087Z,15.80
2019-02-21T16:27:13.596Z,15.80
2019-02-21T16:29:39.821Z,15.80
2019-02-21T16:32:06.288Z,15.80
2019-02-21T16:34:33.123Z,15.90
2019-02-21T16:37:02.508Z,15.80
2019-02-21T16:39:25.559Z,15.80
2019-02-21T16:41:51.819Z,15.90
2019-02-21T16:44:18.209Z,15.90
2019-02-21T16:46:44.449Z,15.90
2019-02-21T16:49:10.913Z,15.90
2019-02-21T16:51:37.320Z,15.80
2019-02-21T16:54:03.732Z,15.80
2019-02-21T16:56:29.976Z,15.80
2019-02-21T16:58:56.200Z,15.80
2019-02-21T17:01:23.231Z,15.80
2019-02-21T17:03:49.485Z,15.80
2019-02-21T17:06:17.273Z,15.80
2019-02-21T17:08:43.565Z,15.80
2019-02-21T17:11:09.816Z,15.80
2019-02-21T17:13:36.225Z,15.80
2019-02-21T17:16:02.452Z,15.80
2019-02-21T17:18:29.132Z,15.80
2019-02-21T17:20:55.544Z,15.80
2019-02-21T17:23:23.094Z,15.80
2019-02-21T17:25:48.199Z,15.80
2019-02-21T17:28:14.429Z,15.80
2019-02-21T17:30:40.879Z,15.80
2019-02-21T17:33:07.338Z,15.80
2019-02-21T17:35:33.716Z,15.80
2019-02-21T17:37:59.975Z,15.80
2019-02-21T17:40:26.623Z,15.80
2019-02-21T17:42:53.027Z,15.80
2019-02-21T17:45:19.233Z,15.80
2019-02-21T17:47:45.420Z,15.80
2019-02-21T17:50:11.679Z,15.80
2019-02-21T17:52:37.907Z,15.80
2019-02-21T17:55:04.158Z,15.80
2019-02-21T17:57:30.409Z,15.80
2019-02-21T17:59:56.818Z,15.80
2019-02-21T18:02:23.497Z,15.70
2019-02-21T18:04:49.919Z,15.80
2019-02-21T18:07:16.363Z,15.70
2019-02-21T18:09:42.798Z,15.80
2019-02-21T18:12:09.188Z,15.80
2019-02-21T18:14:35.391Z,15.70
2019-02-21T18:17:01.673Z,15.70
2019-02-21T18:19:28.091Z,15.80
2019-02-21T18:21:54.320Z,15.70
2019-02-21T18:24:21.396Z,15.70
2019-02-21T18:26:47.799Z,15.70
2019-02-21T18:29:14.038Z,15.70
2019-02-21T18:31:40.232Z,15.70
2019-02-21T18:34:06.472Z,15.70
2019-02-21T18:36:34.793Z,15.60
2019-02-21T18:39:01.204Z,15.60
2019-02-21T18:41:28.000Z,15.70
2019-02-21T18:43:54.508Z,15.70
2019-02-21T18:46:20.896Z,15.70
2019-02-21T18:48:47.951Z,15.70
2019-02-21T18:51:14.392Z,15.70
2019-02-21T18:53:40.627Z,15.80
2019-02-21T18:56:06.841Z,15.80
2019-02-21T18:58:33.065Z,15.70
2019-02-21T19:00:59.280Z,15.70
2019-02-21T19:03:25.590Z,15.70
2019-02-21T19:05:51.952Z,15.70
2019-02-21T19:08:18.165Z,15.70
2019-02-21T19:10:44.410Z,15.70
2019-02-21T19:13:10.687Z,15.70
2019-02-21T19:15:37.079Z,15.70
2019-02-21T19:18:03.301Z,15.70
2019-02-21T19:20:29.526Z,15.70
2019-02-21T19:22:55.852Z,15.70
2019-02-21T19:25:22.224Z,15.70
2019-02-21T19:27:48.899Z,15.70
2019-02-21T19:30:15.055Z,15.70
2019-02-21T19:32:41.299Z,15.70
2019-02-21T19:35:07.749Z,15.70
2019-02-21T19:37:34.541Z,15.70
2019-02-21T19:40:00.858Z,15.70
2019-02-21T19:42:27.011Z,15.70
2019-02-21T19:44:53.255Z,15.70
2019-02-21T19:47:19.918Z,15.70
2019-02-21T19:49:46.371Z,15.70
2019-02-21T19:52:12.803Z,15.70
2019-02-21T19:54:39.164Z,15.70
2019-02-21T19:57:05.355Z,15.70
2019-02-21T19:59:31.635Z,15.70
2019-02-21T20:01:58.044Z,15.70
2019-02-21T20:04:24.300Z,15.70
2019-02-21T20:06:50.524Z,15.70
2019-02-21T20:09:16.765Z,15.70
2019-02-21T20:11:43.803Z,15.70
2019-02-21T20:14:10.028Z,15.60
2019-02-21T20:16:36.286Z,15.70
2019-02-21T20:19:02.736Z,15.70
2019-02-21T20:21:29.098Z,15.70
2019-02-21T20:23:55.343Z,15.70
2019-02-21T20:26:23.232Z,15.60
2019-02-21T20:28:49.895Z,15.60
2019-02-21T20:31:16.347Z,15.70
2019-02-21T20:33:42.739Z,15.70
2019-02-21T20:36:08.959Z,15.70
2019-02-21T20:38:35.408Z,15.60
2019-02-21T20:41:01.614Z,15.60
2019-02-21T20:43:29.464Z,15.50
2019-02-21T20:45:55.956Z,15.50
2019-02-21T20:48:22.345Z,15.50
2019-02-21T20:50:56.371Z,15.50
2019-02-21T20:53:15.615Z,15.50
2019-02-21T20:55:43.748Z,15.50
2019-02-21T20:58:08.298Z,15.50
2019-02-21T21:00:34.781Z,15.50
2019-02-21T21:03:01.135Z,15.40
2019-02-21T21:05:27.331Z,15.50
2019-02-21T21:07:53.626Z,15.50
2019-02-21T21:10:19.838Z,15.40
2019-02-21T21:12:46.049Z,15.50
2019-02-21T21:15:12.312Z,15.40
2019-02-21T21:17:38.496Z,15.40
2019-02-21T21:20:15.538Z,15.40
2019-02-21T21:22:31.195Z,15.40
2019-02-21T21:24:57.424Z,15.40
2019-02-21T21:27:23.648Z,15.40
2019-02-21T21:29:50.104Z,15.40
2019-02-21T21:32:16.504Z,15.40
2019-02-21T21:34:42.746Z,15.50
2019-02-21T21:37:08.975Z,15.50
2019-02-21T21:39:35.174Z,15.50
2019-02-21T21:42:01.663Z,15.50
2019-02-21T21:44:28.047Z,15.50
2019-02-21T21:46:54.319Z,15.50
2019-02-21T21:49:20.754Z,15.50
2019-02-21T21:51:47.175Z,15.50
2019-02-21T21:54:13.600Z,15.50
2019-02-21T21:56:40.469Z,15.50
2019-02-21T21:59:06.423Z,15.50
2019-02-21T22:01:32.672Z,15.50
2019-02-21T22:03:58.944Z,15.50
2019-02-21T22:06:25.343Z,15.50
2019-02-21T22:08:52.395Z,15.50
2019-02-21T22:11:18.629Z,15.50
2019-02-21T22:13:44.843Z,15.50
2019-02-21T22:16:11.073Z,15.40
2019-02-21T22:18:37.560Z,15.40
2019-02-21T22:21:03.974Z,15.40
2019-02-21T22:23:30.377Z,15.40
2019-02-21T22:25:56.604Z,15.40
2019-02-21T22:28:22.830Z,15.50
2019-02-21T22:30:49.304Z,15.50
2019-02-21T22:33:15.709Z,15.50
2019-02-21T22:35:42.111Z,15.40
2019-02-21T22:38:08.399Z,15.40
2019-02-21T22:40:34.815Z,15.40
2019-02-21T22:43:01.260Z,15.40
2019-02-21T22:45:27.482Z,15.40
2019-02-21T22:47:53.899Z,15.40
2019-02-21T22:50:20.300Z,15.40
2019-02-21T22:52:46.544Z,15.40
2019-02-21T22:55:13.017Z,15.40
2019-02-21T22:57:39.269Z,15.40
2019-02-21T23:00:05.627Z,15.40
2019-02-21T23:02:31.864Z,15.40
2019-02-21T23:04:58.104Z,15.40
2019-02-21T23:07:24.327Z,15.50
2019-02-21T23:09:50.732Z,15.50
2019-02-21T23:12:17.026Z,15.40
2019-02-21T23:14:44.232Z,15.40
2019-02-21T23:17:10.448Z,15.40
2019-02-21T23:19:36.695Z,15.40
2019-02-21T23:22:02.910Z,15.40
2019-02-21T23:24:29.146Z,15.40
2019-02-21T23:26:55.373Z,15.40
2019-02-21T23:29:21.627Z,15.40
2019-02-21T23:31:48.073Z,15.50
2019-02-21T23:34:14.504Z,15.50
2019-02-21T23:36:41.151Z,15.40
2019-02-21T23:39:07.367Z,15.40
2019-02-21T23:41:33.831Z,15.40
2019-02-21T23:44:00.265Z,15.40
2019-02-21T23:46:26.650Z,15.40
2019-02-21T23:48:52.891Z,15.40
2019-02-21T23:51:19.089Z,15.40
2019-02-21T23:53:45.347Z,15.40
2019-02-21T23:56:11.790Z,15.40
2019-02-21T23:58:38.000Z,15.40
